Time;durP1;ratioP1;P1;durP2;ratioP2;P2;SDS_P1;SDS_P2;PMS_P1;PMS_P2;Temp;Humidity;BMP_temperature;BMP_pressure;BME280_temperature;BME280_humidity;BME280_pressure;Samples;Min_cycle;Max_cycle;Signal;HPM_P1;HPM_P2
2022/09/03 00:01:58;;;;;;;15.48;6.63;;;6.50;99.90;;;6.97;94.91;99918.31;5022801;28;119660;-67
2022/09/03 00:04:35;;;;;;;12.38;6.05;;;6.60;99.90;;;7.04;94.68;99918.78;5024675;28;118584;-70
2022/09/03 00:07:09;;;;;;;12.57;5.97;;;6.60;99.90;;;7.16;94.64;99927.38;5021851;28;129972;-67
2022/09/03 00:09:47;;;;;;;17.52;6.63;;;6.70;99.90;;;7.23;93.85;99937.06;5022384;28;129296;-66
2022/09/03 00:12:23;;;;;;;17.00;7.30;;;6.80;93.60;;;7.33;93.35;99923.50;5023924;28;119395;-67
2022/09/03 00:14:57;;;;;;;16.13;6.93;;;6.90;87.60;;;7.43;92.39;99931.53;5021711;28;120030;-66
2022/09/03 00:17:32;;;;;;;14.52;7.45;;;7.00;87.80;;;7.54;91.92;99929.56;5021087;28;131161;-67
2022/09/03 00:20:05;;;;;;;13.68;6.97;;;7.10;83.30;;;7.53;91.80;99926.09;5021993;28;130275;-67
2022/09/03 00:22:40;;;;;;;11.90;6.85;;;7.10;68.50;;;7.55;91.91;99928.50;5022210;28;119483;-67
2022/09/03 00:25:15;;;;;;;15.30;6.97;;;7.20;65.20;;;7.62;91.55;99930.88;5021972;28;119666;-67
2022/09/03 00:27:45;;;;;;;13.30;6.25;;;7.30;58.40;;;7.67;92.45;99925.47;5021764;28;129830;-68
2022/09/03 00:30:17;;;;;;;9.82;5.68;;;7.40;62.00;;;7.78;91.98;99918.88;5021746;28;129421;-66
2022/09/03 00:32:51;;;;;;;13.07;6.25;;;7.50;63.10;;;7.86;92.18;99928.28;5022253;28;120200;-66
2022/09/03 00:35:26;;;;;;;14.68;6.85;;;7.50;65.00;;;7.90;92.18;99922.03;5022428;28;120817;-66
2022/09/03 00:37:56;;;;;;;12.77;6.37;;;7.60;69.00;;;7.95;92.28;99926.59;5020536;27;130246;-68
2022/09/03 00:40:44;;;;;;;12.95;6.50;;;7.60;70.30;;;7.97;92.28;99929.00;5021919;28;130202;-66
2022/09/03 00:43:31;;;;;;;16.50;6.15;;;7.60;71.20;;;8.00;92.43;99928.44;5020658;28;122133;-67
2022/09/03 00:46:17;;;;;;;13.90;5.97;;;7.60;72.50;;;8.03;92.61;99925.16;5021854;28;121749;-67
2022/09/03 00:49:07;;;;;;;16.48;6.28;;;7.70;75.20;;;8.07;92.92;99928.91;5021631;28;129816;-67
2022/09/03 00:51:43;;;;;;;13.40;5.95;;;7.70;77.40;;;7.98;93.97;99925.19;5021434;28;130604;-66
2022/09/03 00:54:21;;;;;;;14.43;6.70;;;7.70;88.30;;;8.00;94.38;99928.44;5021861;28;120807;-67
2022/09/03 00:57:01;;;;;;;14.88;6.13;;;7.70;88.30;;;8.03;94.52;99930.56;5021687;28;119251;-67
2022/09/03 00:59:40;;;;;;;11.80;6.65;;;7.70;88.40;;;8.04;94.78;99930.28;5021296;28;130018;-66
2022/09/03 01:02:20;;;;;;;10.63;5.60;;;7.70;91.70;;;8.11;94.49;99921.84;5022224;28;129566;-68
2022/09/03 01:05:02;;;;;;;16.15;6.20;;;7.70;92.10;;;8.15;94.69;99939.13;5021603;28;119692;-67
2022/09/03 01:07:41;;;;;;;11.95;6.38;;;7.80;92.70;;;8.17;95.00;99928.81;5021451;28;119858;-67
2022/09/03 01:10:26;;;;;;;11.88;6.25;;;7.90;91.90;;;8.21;94.85;99935.28;5021947;28;128674;-70
2022/09/03 01:13:02;;;;;;;11.40;5.95;;;7.90;92.20;;;8.30;94.35;99934.66;5021504;28;130152;-70
2022/09/03 01:15:40;;;;;;;12.25;5.60;;;7.90;91.60;;;8.29;94.27;99933.84;5020120;28;120859;-67
2022/09/03 01:18:22;;;;;;;14.20;6.20;;;7.90;91.30;;;8.31;94.15;99944.38;5021429;28;119835;-67
2022/09/03 01:21:08;;;;;;;17.50;6.28;;;7.90;90.90;;;8.28;93.98;99932.22;5021026;28;130000;-67
2022/09/03 01:24:10;;;;;;;18.27;6.93;;;7.80;88.40;;;8.24;94.23;99934.72;5022891;28;129476;-70
2022/09/03 01:27:06;;;;;;;12.93;6.07;;;7.80;93.90;;;8.24;94.73;99934.72;5020047;28;120414;-67
2022/09/03 01:29:48;;;;;;;25.15;7.65;;;7.80;96.50;;;8.19;95.40;99933.94;5021681;28;119459;-66
2022/09/03 01:32:27;;;;;;;14.45;6.25;;;7.90;96.60;;;8.18;95.53;99941.25;5020783;28;130325;-67
2022/09/03 01:35:10;;;;;;;14.65;6.75;;;7.90;95.00;;;8.16;95.78;99938.00;5020887;28;129489;-67
2022/09/03 01:37:56;;;;;;;16.67;7.07;;;7.90;93.80;;;8.19;95.70;99937.44;5019723;28;122219;-69
2022/09/03 01:40:36;;;;;;;14.70;6.60;;;7.90;93.80;;;8.25;95.45;99944.41;5023066;28;120701;-71
2022/09/03 01:43:24;;;;;;;14.27;7.32;;;7.90;93.50;;;8.23;95.20;99938.50;5022455;28;130123;-67
2022/09/03 01:46:01;;;;;;;16.05;7.72;;;7.90;93.30;;;8.21;95.62;99947.97;5019298;28;129520;-66
2022/09/03 01:48:43;;;;;;;;;;;7.80;94.80;;;8.13;95.98;99938.56;5022861;27;119162;-66
2022/09/03 01:51:21;;;;;;;12.25;6.78;;;7.80;96.20;;;8.17;95.80;99939.63;5021094;28;119138;-67
2022/09/03 01:54:32;;;;;;;16.40;7.38;;;7.80;97.90;;;8.16;96.43;99948.03;5020420;28;130151;-67
2022/09/03 01:57:39;;;;;;;14.10;7.15;;;7.80;99.90;;;8.17;96.25;99945.03;5020706;28;129783;-67
2022/09/03 02:00:12;;;;;;;15.37;6.97;;;7.80;99.90;;;8.17;95.75;99939.63;5020852;28;119966;-67
2022/09/03 02:02:46;;;;;;;14.23;6.07;;;7.80;99.90;;;8.16;96.17;99938.00;5021956;28;120041;-67
2022/09/03 02:05:18;;;;;;;11.20;6.03;;;7.80;99.90;;;8.17;96.04;99936.94;5018932;28;130323;-67
2022/09/03 02:07:50;;;;;;;12.00;6.07;;;7.80;99.90;;;8.16;96.29;99937.22;5020296;28;129950;-67
2022/09/03 02:10:23;;;;;;;14.52;6.13;;;7.80;99.90;;;8.13;96.78;99938.56;5020445;28;119732;-68
2022/09/03 02:12:56;;;;;;;11.93;5.80;;;7.70;99.90;;;8.11;96.52;99940.75;5022430;28;118683;-67
2022/09/03 02:15:27;;;;;;;14.30;6.55;;;7.70;99.90;;;8.13;96.86;99943.19;5020577;28;129811;-68
2022/09/03 02:18:02;;;;;;;14.35;6.78;;;7.70;99.90;;;8.06;97.25;99938.13;5020269;28;130304;-70
2022/09/03 02:20:31;;;;;;;12.25;6.50;;;7.60;99.90;;;8.04;97.59;99934.88;5020474;28;120107;-67
2022/09/03 02:23:00;;;;;;;13.25;6.65;;;7.60;99.90;;;8.00;97.95;99944.66;5020710;28;119956;-67
2022/09/03 02:25:36;;;;;;;14.07;6.63;;;7.60;99.90;;;8.01;97.91;99936.25;5020043;28;129870;-67
2022/09/03 02:28:06;;;;;;;10.88;5.60;;;7.50;99.90;;;8.02;97.40;99937.06;5020018;28;130007;-67
2022/09/03 02:30:35;;;;;;;14.93;6.80;;;7.50;99.90;;;8.00;97.21;99933.84;5017885;28;121843;-67
2022/09/03 02:33:05;;;;;;;13.00;6.85;;;7.50;99.90;;;7.97;97.52;99937.09;5020170;28;123095;-67
2022/09/03 02:35:34;;;;;;;12.73;6.40;;;7.50;99.90;;;7.89;97.18;99939.31;5019384;28;129890;-66
2022/09/03 02:38:11;;;;;;;14.43;6.18;;;7.40;99.90;;;7.85;97.64;99935.59;5020084;28;130080;-67
2022/09/03 02:40:40;;;;;;;18.98;6.93;;;7.40;99.90;;;7.84;97.87;99944.78;5020254;28;120221;-69
2022/09/03 02:43:16;;;;;;;14.00;6.68;;;7.40;99.90;;;7.76;98.75;99939.97;5019941;28;119943;-67
2022/09/03 02:45:48;;;;;;;16.42;7.47;;;7.40;99.90;;;7.63;99.84;99943.31;5019738;28;129957;-67
2022/09/03 02:48:23;;;;;;;13.95;6.07;;;7.40;99.90;;;7.49;100.00;99941.22;5021699;28;129578;-68
2022/09/03 02:50:52;;;;;;;12.73;7.00;;;7.20;99.90;;;7.44;100.00;99943.97;5020078;28;119894;-67
2022/09/03 02:53:21;;;;;;;11.88;6.63;;;7.10;99.90;;;7.46;100.00;99941.78;5020121;28;119838;-67
2022/09/03 02:55:49;;;;;;;13.07;6.88;;;7.00;99.90;;;7.42;100.00;99938.03;5018295;28;130797;-67
2022/09/03 02:58:18;;;;;;;15.18;6.90;;;7.00;99.90;;;7.35;100.00;99943.75;5019369;28;129770;-67
2022/09/03 03:00:48;;;;;;;14.35;6.93;;;7.00;99.90;;;7.34;100.00;99954.84;5019089;27;120014;-67
2022/09/03 03:03:18;;;;;;;11.70;6.20;;;7.00;99.90;;;7.27;100.00;99943.53;5021316;28;120023;-66
2022/09/03 03:05:50;;;;;;;13.10;7.05;;;6.90;99.90;;;7.12;100.00;99956.03;5018120;28;130570;-66
2022/09/03 03:08:23;;;;;;;16.73;6.78;;;6.80;99.90;;;6.97;100.00;99950.69;5019144;28;129664;-66
2022/09/03 03:10:55;;;;;;;14.02;6.65;;;6.60;99.90;;;6.96;100.00;99949.88;5019865;28;119390;-67
2022/09/03 03:13:24;;;;;;;14.85;6.88;;;6.60;99.90;;;7.10;100.00;99949.28;5020021;28;119864;-67
2022/09/03 03:15:55;;;;;;;13.15;6.50;;;6.60;99.90;;;7.22;100.00;99952.47;5019162;28;130566;-66
2022/09/03 03:18:27;;;;;;;14.30;6.53;;;6.70;99.90;;;7.28;100.00;99945.16;5019217;28;130447;-67
2022/09/03 03:20:55;;;;;;;15.93;6.85;;;6.70;99.90;;;7.28;100.00;99945.16;5018189;28;122279;-67
2022/09/03 03:23:24;;;;;;;13.25;6.03;;;6.80;99.90;;;7.34;100.00;99933.25;5019547;28;121857;-66
2022/09/03 03:25:52;;;;;;;13.43;6.40;;;6.90;99.90;;;7.38;100.00;99939.69;5019267;28;130050;-66
2022/09/03 03:28:21;;;;;;;13.32;6.68;;;6.90;99.90;;;7.39;100.00;99941.31;5019229;28;130476;-66
2022/09/03 03:30:51;;;;;;;19.25;7.40;;;7.00;99.90;;;7.47;100.00;99943.41;5019522;28;120996;-67
2022/09/03 03:33:20;;;;;;;15.13;7.35;;;7.00;99.90;;;7.48;99.86;99934.22;5021072;28;118479;-66
2022/09/03 03:35:50;;;;;;;15.25;6.93;;;7.10;99.90;;;7.51;100.00;99933.66;5019000;28;129736;-66
2022/09/03 03:38:18;;;;;;;14.68;6.75;;;7.10;99.90;;;7.62;99.10;99939.81;5019281;28;129497;-66
2022/09/03 03:40:47;;;;;;;14.38;6.93;;;7.10;99.90;;;7.69;98.54;99934.88;5019098;28;119763;-70
2022/09/03 03:43:16;;;;;;;14.93;6.50;;;7.20;99.90;;;7.72;97.43;99939.72;5019366;28;119474;-67
2022/09/03 03:45:45;;;;;;;10.88;6.60;;;7.20;99.90;;;7.77;97.22;99936.16;5017852;28;129746;-68
2022/09/03 03:48:13;;;;;;;17.52;6.28;;;7.20;99.90;;;7.84;96.39;99941.28;5018857;28;129634;-66
2022/09/03 03:50:41;;;;;;;15.45;6.03;;;7.20;99.90;;;7.78;96.82;99945.91;5021110;28;119197;-68
2022/09/03 03:53:12;;;;;;;11.57;6.28;;;7.20;99.90;;;7.85;96.52;99932.88;5019185;28;119483;-66
2022/09/03 03:55:40;;;;;;;11.70;5.85;;;7.30;99.90;;;7.96;96.05;99938.97;5018723;28;129653;-66
2022/09/03 03:58:09;;;;;;;12.45;6.53;;;7.40;99.90;;;8.13;95.18;99937.78;5018719;28;130255;-67
2022/09/03 04:00:38;;;;;;;14.52;6.93;;;7.50;99.90;;;8.27;94.70;99944.94;5020952;28;119380;-66
2022/09/03 04:03:07;;;;;;;13.65;6.70;;;7.60;99.90;;;8.47;94.06;99943.16;5020516;28;119892;-67
2022/09/03 04:05:35;;;;;;;13.25;6.38;;;7.80;99.90;;;8.66;93.28;99950.53;5018687;28;130039;-66
2022/09/03 04:08:04;;;;;;;12.38;6.25;;;8.00;99.90;;;8.85;92.35;99948.72;5020699;28;129836;-67
2022/09/03 04:10:34;;;;;;;11.80;6.60;;;8.20;94.50;;;9.02;91.78;99953.63;5017737;28;122186;-68
2022/09/03 04:13:03;;;;;;;11.93;6.75;;;8.40;89.00;;;9.20;90.14;99952.06;5021062;28;121837;-68
2022/09/03 04:15:31;;;;;;;14.88;6.40;;;8.50;80.70;;;9.42;89.40;99956.09;5021782;28;130863;-67
2022/09/03 04:18:00;;;;;;;13.77;7.10;;;8.60;72.40;;;9.65;87.45;99955.22;5022332;28;129442;-68
2022/09/03 04:20:28;;;;;;;16.77;5.90;;;8.80;53.10;;;9.93;86.58;99949.13;5022235;28;119925;-66
2022/09/03 04:23:01;;;;;;;12.18;6.57;;;9.00;47.70;;;10.22;84.83;99951.59;5022230;28;119656;-67
2022/09/03 04:25:30;;;;;;;13.77;6.28;;;9.30;34.30;;;10.53;83.61;99953.78;5021926;28;130590;-67
2022/09/03 04:28:00;;;;;;;11.35;5.78;;;9.50;21.00;;;10.72;81.42;99962.66;5022411;28;130556;-67
2022/09/03 04:30:29;;;;;;;11.73;6.40;;;9.70;6.70;;;10.80;80.30;99955.72;5022369;28;119181;-69
2022/09/03 04:32:57;;;;;;;10.50;6.68;;;9.70;1.00;;;10.86;80.40;99954.53;5020927;28;119603;-66
2022/09/03 04:35:32;;;;;;;11.75;6.03;;;9.90;1.00;;;10.95;79.34;99952.72;5020547;28;130357;-67
2022/09/03 04:38:03;;;;;;;12.95;6.65;;;10.00;1.00;;;11.07;78.53;99959.53;5021817;28;129968;-68
2022/09/03 04:40:31;;;;;;;12.68;6.18;;;10.10;1.00;;;11.15;78.61;99956.88;5023680;28;118491;-66
2022/09/03 04:43:01;;;;;;;13.23;6.45;;;10.20;1.00;;;11.26;77.76;99962.13;5007182;28;118288;-66
2022/09/03 04:45:30;;;;;;;10.77;5.93;;;10.30;1.00;;;11.34;77.62;99969.53;5021842;28;130841;-70
2022/09/03 04:48:00;;;;;;;13.98;6.70;;;10.40;1.00;;;11.52;77.14;99954.22;5021431;28;129666;-68
2022/09/03 04:50:30;;;;;;;11.55;5.85;;;10.60;1.00;;;11.66;76.63;99962.31;5023844;28;119760;-66
2022/09/03 04:53:04;;;;;;;10.95;5.63;;;10.70;1.00;;;11.74;76.07;99950.72;5022544;28;119329;-67
2022/09/03 04:55:35;;;;;;;12.88;6.03;;;10.70;1.00;;;11.84;75.85;99946.94;5021371;28;129985;-67
2022/09/03 04:58:06;;;;;;;11.23;5.72;;;10.80;1.00;;;12.02;75.09;99953.34;5021406;28;129771;-67
2022/09/03 05:00:36;;;;;;;9.93;5.82;;;11.00;1.00;;;12.19;74.54;99950.72;5019203;28;122999;-67
2022/09/03 05:03:05;;;;;;;17.40;8.13;;;11.10;1.00;;;12.39;74.68;99954.06;5023056;28;122351;-67
2022/09/03 05:05:33;;;;;;;18.63;9.80;;;11.30;1.00;;;12.51;74.56;99953.44;5021263;28;130398;-67
2022/09/03 05:08:03;;;;;;;20.27;9.10;;;11.40;1.00;;;12.61;73.23;99950.47;5019887;28;129293;-67
2022/09/03 05:10:31;;;;;;;14.50;8.05;;;11.40;1.00;;;12.78;71.85;99960.63;5021560;28;119980;-66
2022/09/03 05:13:02;;;;;;;13.73;7.90;;;11.60;1.00;;;12.90;70.29;99958.09;5021577;28;119205;-68
2022/09/03 05:15:33;;;;;;;13.85;7.75;;;11.70;1.00;;;13.07;70.40;99956.53;5023151;28;129779;-67
2022/09/03 05:18:03;;;;;;;15.05;6.95;;;11.90;1.00;;;13.23;70.25;99957.69;5021373;28;129502;-66
2022/09/03 05:20:32;;;;;;;15.48;6.80;;;12.00;1.00;;;13.26;68.65;99959.78;5021245;28;120587;-66
2022/09/03 05:23:03;;;;;;;12.45;6.00;;;11.90;1.00;;;13.39;68.14;99954.56;5020572;28;119580;-68
2022/09/03 05:25:32;;;;;;;13.20;5.65;;;12.00;1.00;;;13.46;65.74;99963.88;5019503;28;130025;-67
2022/09/03 05:28:01;;;;;;;12.82;6.28;;;12.10;1.00;;;13.60;66.24;99963.72;5020920;28;129917;-67
2022/09/03 05:30:31;;;;;;;13.23;6.60;;;12.30;1.00;;;13.76;65.28;99961.31;5021244;28;119716;-67
2022/09/03 05:33:00;;;;;;;12.95;5.60;;;12.50;1.00;;;13.95;64.40;99962.91;5021100;28;119368;-67
2022/09/03 05:35:28;;;;;;;8.93;5.13;;;12.60;1.00;;;14.10;63.08;99964.31;5020461;28;130180;-68
2022/09/03 05:37:58;;;;;;;8.88;4.03;;;12.80;1.00;;;14.27;60.92;99963.47;5020457;28;129449;-67
2022/09/03 05:40:27;;;;;;;8.63;3.33;;;13.00;1.00;;;14.41;58.59;99969.53;5020851;28;120124;-67
2022/09/03 05:42:58;;;;;;;7.28;3.67;;;13.10;1.00;;;14.61;57.70;99967.25;5021114;28;119586;-67
2022/09/03 05:45:28;;;;;;;8.75;3.22;;;13.30;1.00;;;14.77;56.79;99970.25;5022601;28;128826;-66
2022/09/03 05:48:01;;;;;;;6.47;2.83;;;13.40;1.00;;;14.89;54.38;99971.16;5020039;28;129453;-66
2022/09/03 05:50:30;;;;;;;8.45;3.42;;;13.40;1.00;;;15.00;52.74;99968.84;5019737;28;122584;-66
2022/09/03 05:52:59;;;;;;;6.68;3.22;;;13.50;1.00;;;15.20;52.70;99970.03;5020730;28;121837;-66
2022/09/03 05:55:28;;;;;;;8.10;3.13;;;13.60;1.00;;;15.34;51.50;99958.84;5020622;28;130051;-67
2022/09/03 05:57:57;;;;;;;7.47;3.28;;;13.70;1.00;;;15.56;52.20;99965.13;5022274;28;129415;-67
2022/09/03 06:00:25;;;;;;;5.97;3.22;;;14.00;1.00;;;15.76;51.77;99956.09;5020496;28;120087;-68
2022/09/03 06:02:55;;;;;;;8.60;3.70;;;14.20;1.00;;;15.91;50.76;99956.63;5022080;28;119608;-69
2022/09/03 06:05:24;;;;;;;7.28;3.00;;;14.30;1.00;;;16.09;50.58;99963.56;5020412;28;129853;-66
2022/09/03 06:07:53;;;;;;;10.38;3.45;;;14.40;1.00;;;16.17;49.11;99954.47;5020880;28;129541;-69
2022/09/03 06:10:21;;;;;;;9.05;3.70;;;14.30;1.00;;;16.29;48.46;99952.91;5020732;28;119726;-67
2022/09/03 06:12:52;;;;;;;12.68;4.35;;;14.40;1.00;;;16.37;47.86;99956.69;5022857;28;118344;-66
2022/09/03 06:15:20;;;;;;;9.60;3.60;;;14.50;1.00;;;16.53;47.63;99955.69;5018880;28;130674;-67
2022/09/03 06:17:49;;;;;;;11.30;4.05;;;14.60;1.00;;;16.61;47.49;99955.91;5020443;28;130004;-67
2022/09/03 06:20:17;;;;;;;10.23;3.75;;;14.60;1.00;;;16.73;46.14;99964.13;5020540;28;120433;-68
2022/09/03 06:22:52;;;;;;;13.48;3.30;;;14.60;1.00;;;16.71;45.99;99952.72;5020445;28;119387;-67
2022/09/03 06:25:21;;;;;;;12.48;3.67;;;14.40;1.00;;;16.77;46.11;99953.31;5020073;28;129676;-69
2022/09/03 06:27:50;;;;;;;9.25;3.60;;;14.50;1.00;;;16.80;45.52;99961.66;5020139;28;130396;-66
2022/09/03 06:30:19;;;;;;;10.75;3.90;;;14.60;1.00;;;16.92;45.95;99954.59;5020277;28;120275;-67
2022/09/03 06:32:49;;;;;;;9.05;3.58;;;14.80;1.00;;;17.05;45.12;99965.22;5020773;28;119810;-67
2022/09/03 06:35:17;;;;;;;9.18;3.50;;;15.00;1.00;;;16.95;44.90;99968.41;5023039;27;131482;-67
2022/09/03 06:37:46;;;;;;;9.90;3.85;;;15.00;1.00;;;17.16;45.72;99971.03;5019910;28;129059;-68
2022/09/03 06:40:21;;;;;;;10.02;3.67;;;15.30;1.00;;;17.54;45.77;99969.81;5019038;28;122057;-68
2022/09/03 06:42:59;;;;;;;23.43;4.33;;;15.70;1.00;;;17.76;44.51;99964.94;5019997;28;122065;-68
2022/09/03 06:45:28;;;;;;;6.57;3.03;;;15.80;1.00;;;17.93;43.77;99958.38;5019761;28;130031;-69
2022/09/03 06:47:57;;;;;;;10.80;3.55;;;15.90;1.00;;;18.14;43.61;99960.94;5019841;28;129762;-68
2022/09/03 06:50:25;;;;;;;7.95;3.72;;;16.00;1.00;;;18.17;43.26;99962.97;5020136;28;119543;-69
2022/09/03 06:52:54;;;;;;;9.35;3.65;;;16.10;1.00;;;18.23;41.75;99960.75;5020319;28;119179;-69
2022/09/03 06:55:25;;;;;;;8.93;3.58;;;15.90;1.00;;;18.20;41.31;99966.94;5019817;28;130659;-68
2022/09/03 06:57:56;;;;;;;8.70;3.45;;;15.60;1.00;;;18.33;41.28;99966.53;5020154;28;129619;-67
2022/09/03 07:00:25;;;;;;;6.50;2.83;;;15.80;1.00;;;18.35;42.44;99963.44;5020367;28;119528;-70
2022/09/03 07:02:58;;;;;;;13.80;3.90;;;16.00;1.00;;;18.47;41.74;99968.06;5021351;28;119214;-69
2022/09/03 07:05:27;;;;;;;10.50;4.22;;;16.20;1.00;;;18.68;42.03;99971.38;5018388;28;130282;-67
2022/09/03 07:07:57;;;;;;;8.73;3.83;;;16.40;1.00;;;18.84;40.88;99967.81;5019430;28;129485;-67
2022/09/03 07:10:26;;;;;;;12.38;4.40;;;16.50;1.00;;;19.04;41.13;99961.25;5020137;28;119410;-68
2022/09/03 07:12:55;;;;;;;7.43;3.42;;;16.70;1.00;;;19.10;40.42;99959.00;5019874;28;119491;-70
2022/09/03 07:15:25;;;;;;;10.40;3.40;;;16.80;1.00;;;19.17;39.90;99970.19;5019652;28;130324;-69
2022/09/03 07:17:53;;;;;;;10.30;3.47;;;16.80;1.00;;;19.18;38.59;99966.28;5019971;28;129313;-70
2022/09/03 07:20:22;;;;;;;6.07;2.97;;;16.30;1.00;;;19.03;38.43;99965.16;5019858;28;119916;-68
2022/09/03 07:22:50;;;;;;;8.15;3.40;;;16.20;1.00;;;18.92;38.91;99969.59;5020207;28;119529;-68
2022/09/03 07:25:19;;;;;;;8.20;2.92;;;16.20;1.00;;;19.16;39.16;99959.53;5019355;28;130625;-67
2022/09/03 07:27:50;;;;;;;9.05;3.38;;;16.70;1.00;;;19.31;39.15;99969.72;5019345;28;130131;-67
2022/09/03 07:30:19;;;;;;;8.55;3.40;;;17.00;1.00;;;19.24;38.94;99966.78;5020503;28;122320;-72
2022/09/03 07:32:49;;;;;;;6.07;2.88;;;17.00;1.00;;;19.44;39.20;99969.59;5019488;28;121856;-68
2022/09/03 07:35:18;;;;;;;7.80;3.00;;;17.20;1.00;;;19.52;38.38;99971.31;5019534;28;130649;-68
2022/09/03 07:37:47;;;;;;;8.50;3.17;;;17.20;1.00;;;19.62;37.82;99972.69;5019202;28;129422;-68
2022/09/03 07:40:18;;;;;;;13.43;4.10;;;17.10;1.00;;;19.69;38.37;99968.16;5019651;28;119938;-68
2022/09/03 07:42:50;;;;;;;6.03;2.90;;;17.20;1.00;;;19.87;36.90;99973.28;5019400;28;119219;-71
2022/09/03 07:45:19;;;;;;;7.95;2.90;;;17.00;1.00;;;19.71;37.63;99971.34;5019226;28;130349;-68
2022/09/03 07:47:49;;;;;;;5.97;2.85;;;17.10;1.00;;;20.14;37.29;99976.16;5023747;27;129727;-68
2022/09/03 07:50:18;;;;;;;7.22;3.42;;;17.60;1.00;;;20.31;36.14;99970.16;5022700;28;120148;-68
2022/09/03 07:52:46;;;;;;;9.80;4.78;;;17.90;1.00;;;20.28;35.02;99976.41;5023289;28;119503;-67
2022/09/03 07:55:15;;;;;;;18.40;11.65;;;17.60;1.00;;;20.46;35.66;99966.50;5021196;28;130403;-68
2022/09/03 07:57:43;;;;;;;9.20;3.28;;;17.80;1.00;;;20.64;36.06;99966.81;5022558;28;130195;-68
2022/09/03 08:00:16;;;;;;;8.27;3.80;;;18.20;1.00;;;20.72;35.41;99970.50;5022898;28;120508;-68
2022/09/03 08:02:45;;;;;;;8.32;2.50;;;18.00;1.00;;;20.71;35.18;99977.19;5023854;28;119546;-67
2022/09/03 08:05:13;;;;;;;8.25;2.50;;;18.00;1.00;;;20.68;34.40;99977.13;5022353;28;130272;-68
2022/09/03 08:07:42;;;;;;;7.30;2.85;;;17.80;1.00;;;20.87;34.27;99968.78;5022327;28;129986;-68
2022/09/03 08:10:11;;;;;;;9.07;2.70;;;18.10;1.00;;;20.76;33.50;99971.34;5022981;28;119641;-67
2022/09/03 08:12:40;;;;;;;7.30;2.80;;;18.00;1.00;;;20.58;34.28;99979.28;5023240;28;119889;-67
2022/09/03 08:15:10;;;;;;;10.15;2.67;;;18.00;1.00;;;20.68;34.26;99971.59;5020967;28;129850;-68
2022/09/03 08:17:44;;;;;;;6.25;2.58;;;17.90;1.00;;;20.96;34.87;99969.31;5022223;28;130199;-69
2022/09/03 08:20:13;;;;;;;4.80;2.20;;;18.40;1.00;;;21.33;34.47;99973.38;5021354;28;122161;-68
2022/09/03 08:22:42;;;;;;;4.80;2.40;;;18.90;1.00;;;21.56;33.05;99958.75;5022351;28;122573;-68
2022/09/03 08:25:10;;;;;;;8.52;2.22;;;19.00;1.00;;;21.53;32.77;99969.38;5022035;28;129743;-67
2022/09/03 08:27:39;;;;;;;4.82;2.40;;;18.90;1.00;;;21.71;32.40;99966.81;5022197;28;129492;-70
2022/09/03 08:30:10;;;;;;;7.60;2.35;;;19.10;1.00;;;21.74;32.56;99968.06;5022572;28;119669;-67
2022/09/03 08:32:40;;;;;;;5.15;2.08;;;19.10;1.00;;;21.76;32.55;99962.94;5021960;28;119403;-68
2022/09/03 08:35:09;;;;;;;7.45;2.40;;;19.10;1.00;;;21.80;33.01;99963.78;5021859;28;130069;-67
2022/09/03 08:37:38;;;;;;;4.68;1.80;;;19.20;1.00;;;21.77;32.99;99953.50;5022230;28;130777;-69
2022/09/03 08:40:08;;;;;;;7.65;3.20;;;19.10;1.00;;;21.76;32.55;99951.88;5020846;28;119553;-67
2022/09/03 08:42:54;;;;;;;7.63;3.17;;;18.80;1.00;;;21.80;31.61;99958.25;5022197;28;119349;-68
2022/09/03 08:45:23;;;;;;;5.70;2.35;;;18.30;1.00;;;21.50;32.08;99950.78;5020839;28;129797;-67
2022/09/03 08:48:02;;;;;;;7.40;3.80;;;18.20;1.00;;;21.57;33.26;99952.06;5024210;28;128246;-67
2022/09/03 08:50:36;;;;;;;13.30;4.38;;;18.60;1.00;;;21.84;33.04;99959.09;5022053;28;119695;-68
2022/09/03 08:53:13;;;;;;;10.70;3.47;;;19.00;1.00;;;22.15;31.60;99951.53;5022077;28;119074;-68
2022/09/03 08:55:50;;;;;;;7.72;3.10;;;19.40;1.00;;;22.36;31.69;99950.16;5021561;28;130117;-68
2022/09/03 08:58:22;;;;;;;6.22;1.83;;;19.50;1.00;;;22.49;31.21;99947.94;5005628;28;128834;-69
2022/09/03 09:01:00;;;;;;;5.50;1.73;;;19.60;1.00;;;22.35;30.65;99943.06;5023924;28;119251;-68
2022/09/03 09:03:53;;;;;;;11.30;2.83;;;19.50;1.00;;;22.17;31.60;99954.69;5024185;28;119275;-68
2022/09/03 09:06:31;;;;;;;4.45;2.33;;;19.60;1.00;;;22.29;31.20;99955.63;5021443;28;129802;-67
2022/09/03 09:09:13;;;;;;;6.93;2.30;;;19.20;1.00;;;22.73;31.54;99947.34;5021488;28;129567;-68
2022/09/03 09:11:53;;;;;;;4.13;2.10;;;19.70;1.00;;;22.93;30.76;99950.66;5020383;28;123684;-68
2022/09/03 09:14:33;;;;;;;5.32;1.92;;;20.00;1.00;;;23.02;30.01;99952.31;5023374;28;120856;-69
2022/09/03 09:17:18;;;;;;;5.03;2.20;;;20.00;1.00;;;22.70;28.91;99948.09;5021282;28;130041;-69
2022/09/03 09:20:03;;;;;;;7.45;1.80;;;19.60;1.00;;;23.05;29.87;99951.53;5021506;28;129884;-70
2022/09/03 09:22:37;;;;;;;13.75;4.63;;;20.00;1.00;;;22.81;28.82;99948.19;5021682;28;120451;-70
2022/09/03 09:25:14;;;;;;;5.90;1.70;;;19.60;1.00;;;22.90;28.13;99951.41;5021593;28;119279;-71
2022/09/03 09:27:52;;;;;;;5.95;1.63;;;19.30;1.00;;;22.16;28.59;99952.31;5021409;28;129809;-70
2022/09/03 09:30:20;;;;;;;7.55;3.03;;;18.60;1.00;;;22.05;28.97;99943.94;5021506;28;130255;-69
2022/09/03 09:32:49;;;;;;;5.50;2.10;;;18.30;1.00;;;22.10;29.27;99949.13;5020001;28;119803;-69
2022/09/03 09:35:20;;;;;;;4.45;1.40;;;19.00;1.00;;;22.34;29.13;99944.25;5021067;28;119484;-68
2022/09/03 09:37:53;;;;;;;3.45;1.55;;;19.50;1.00;;;22.90;28.70;99954.19;5004977;28;128744;-69
2022/09/03 09:40:32;;;;;;;3.83;1.63;;;20.00;1.00;;;22.72;27.69;99942.19;5020921;28;129639;-71
2022/09/03 09:43:11;;;;;;;2.50;1.30;;;19.10;1.00;;;22.59;28.31;99948.03;5021201;28;120043;-69
2022/09/03 09:45:42;;;;;;;4.50;1.92;;;18.60;1.00;;;22.20;29.30;99948.41;5006566;28;118777;-68
2022/09/03 09:48:21;;;;;;;6.72;2.13;;;18.50;1.00;;;22.11;29.18;99938.84;5020737;28;130312;-73
2022/09/03 09:51:03;;;;;;;5.63;2.00;;;18.10;1.00;;;21.92;29.98;99948.13;5020869;28;130001;-71
2022/09/03 09:53:31;;;;;;;4.63;1.75;;;18.30;1.00;;;21.87;29.53;99946.50;5020900;28;120134;-72
2022/09/03 09:56:01;;;;;;;8.25;2.22;;;18.10;1.00;;;21.65;30.06;99945.44;5021497;28;119525;-73
2022/09/03 09:58:32;;;;;;;5.65;1.80;;;18.30;1.00;;;21.56;30.64;99947.69;5020632;28;129726;-70
2022/09/03 10:01:11;;;;;;;4.32;2.10;;;18.40;1.00;;;21.76;30.63;99946.38;5020675;28;129960;-69
2022/09/03 10:03:49;;;;;;;9.82;3.20;;;18.60;1.00;;;22.31;30.43;99940.25;5022115;28;121951;-70
2022/09/03 10:09:11;;;;;;;8.07;4.70;;;20.30;1.00;;;23.05;29.47;99946.00;5020373;27;129830;-71
2022/09/03 10:11:44;;;;;;;9.90;5.45;;;20.20;1.00;;;22.82;29.90;99949.78;5023585;28;130242;-70
2022/09/03 10:14:23;;;;;;;17.20;6.60;;;20.20;1.00;;;23.12;29.47;99948.81;5021233;28;119394;-70
2022/09/03 10:17:03;;;;;;;40.65;18.52;;;19.80;1.00;;;22.96;31.27;99954.63;5021118;28;119565;-71
2022/09/03 10:20:25;;;;;;;8.02;3.50;;;19.70;1.00;;;22.85;31.29;99951.78;5019129;28;129816;-70
2022/09/03 10:22:45;;;;;;;30.77;14.65;;;20.00;1.00;;;22.61;31.69;99948.44;5023744;28;129139;-69
2022/09/03 10:25:16;;;;;;;7.43;2.97;;;19.20;1.00;;;22.54;32.04;99939.28;5020837;28;120016;-70
2022/09/03 10:27:45;;;;;;;6.72;1.90;;;19.70;1.00;;;22.34;32.25;99936.72;5019462;28;119429;-69
2022/09/03 10:30:14;;;;;;;5.22;2.00;;;19.60;1.00;;;22.42;30.38;99948.66;5019067;28;129922;-71
2022/09/03 10:32:58;;;;;;;11.35;2.60;;;19.30;1.00;;;21.99;31.25;99937.16;5018641;28;129315;-75
2022/09/03 10:35:31;;;;;;;5.88;2.15;;;19.10;1.00;;;22.36;31.27;99939.94;5020558;28;119712;-69
2022/09/03 10:38:13;;;;;;;4.63;1.88;;;19.70;1.00;;;22.25;30.86;99936.22;5020608;28;119359;-68
2022/09/03 10:40:55;;;;;;;8.63;2.58;;;19.80;1.00;;;22.12;31.11;99935.69;5019820;28;129965;-69
2022/09/03 10:43:44;;;;;;;4.70;2.13;;;19.70;1.00;;;22.01;31.28;99937.56;5022021;28;128994;-69
2022/09/03 10:46:18;;;;;;;6.65;2.25;;;19.40;1.00;;;22.04;31.04;99931.28;5020340;28;119519;-71